Time;durP1;ratioP1;P1;durP2;ratioP2;P2;SDS_P1;SDS_P2;PMS_P1;PMS_P2;Temp;Humidity;BMP_temperature;BMP_pressure;BME280_temperature;BME280_humidity;BME280_pressure;Samples;Min_cycle;Max_cycle;Signal;HPM_P1;HPM_P2
2022/09/24 00:00:51;;;;;;;17.43;10.80;;;;;;;41.20;34.88;101094.31;5051314;28;21030;-72
2022/09/24 00:03:23;;;;;;;17.90;9.23;;;;;;;41.18;34.94;101091.91;5052173;28;20395;-71
2022/09/24 00:05:51;;;;;;;20.77;9.13;;;;;;;41.19;35.20;101089.97;5051591;28;20402;-71
2022/09/24 00:08:19;;;;;;;19.00;7.70;;;;;;;40.79;35.56;101099.13;5050759;28;20896;-72
2022/09/24 00:10:47;;;;;;;14.73;8.77;;;;;;;40.99;35.44;101089.53;5052667;28;20465;-72
2022/09/24 00:13:16;;;;;;;21.03;11.53;;;;;;;40.97;35.23;101088.28;5051035;28;20797;-73
2022/09/24 00:15:48;;;;;;;27.07;10.60;;;;;;;40.94;35.33;101083.47;5048589;28;20524;-72
2022/09/24 06:47:22;;;;;;;24.43;11.93;;;;;;;40.43;36.10;101174.72;6048756;22;2715780;-71
2022/09/24 06:49:49;;;;;;;23.53;15.57;;;;;;;40.20;36.27;101177.53;6185011;23;20137;-75
2022/09/24 06:52:15;;;;;;;21.87;10.33;;;;;;;40.01;37.10;101187.81;6158589;23;20387;-68
2022/09/24 06:54:41;;;;;;;19.83;11.53;;;;;;;40.11;36.29;101194.94;6155374;23;20384;-69
2022/09/24 06:57:07;;;;;;;21.10;12.47;;;;;;;40.29;36.70;101200.09;6157103;23;20845;-70
2022/09/24 06:59:33;;;;;;;34.80;14.17;;;;;;;40.27;36.52;101201.56;6156398;23;20519;-73
2022/09/24 07:01:59;;;;;;;25.13;10.77;;;;;;;40.55;36.25;101205.66;6156322;23;20161;-70
2022/09/24 07:04:25;;;;;;;37.53;12.17;;;;;;;40.38;35.91;101202.03;6157346;23;20153;-71
2022/09/24 07:09:40;;;;;;;19.80;10.00;;;;;;;40.78;35.13;101213.69;6184392;23;20140;-70
2022/09/24 07:12:07;;;;;;;21.93;13.33;;;;;;;40.72;35.73;101213.03;6184143;23;20364;-70
2022/09/24 07:14:34;;;;;;;15.97;9.90;;;;;;;40.87;35.33;101205.53;6157844;23;20395;-71
2022/09/24 07:17:00;;;;;;;22.00;11.47;;;;;;;40.83;35.16;101205.38;6155718;23;20845;-71
2022/09/24 07:19:26;;;;;;;26.93;12.50;;;;;;;40.55;35.49;101219.25;6157581;23;20431;-70
2022/09/24 07:21:52;;;;;;;19.83;12.13;;;;;;;40.28;36.17;101225.69;6158502;23;20395;-69
2022/09/24 07:24:17;;;;;;;19.33;11.77;;;;;;;40.44;35.48;101227.97;6156649;23;20209;-70
2022/09/24 07:26:43;;;;;;;17.87;10.13;;;;;;;40.37;35.73;101239.31;6156810;23;20157;-68
2022/09/24 07:29:09;;;;;;;27.73;10.57;;;;;;;40.58;35.44;101227.88;6156379;23;20207;-76
2022/09/24 07:31:35;;;;;;;15.87;9.90;;;;;;;40.57;35.63;101226.28;6158352;23;20159;-69
2022/09/24 07:34:01;;;;;;;25.23;10.00;;;;;;;40.55;35.60;101238.28;6158351;23;20156;-74
2022/09/24 07:36:30;;;;;;;22.03;10.23;;;;;;;40.76;34.99;101243.94;6157857;23;20479;-70
2022/09/24 07:38:57;;;;;;;13.33;8.30;;;;;;;40.74;34.93;101248.09;6156437;23;20811;-74
2022/09/24 07:41:23;;;;;;;14.07;8.33;;;;;;;40.94;34.53;101241.25;6156420;23;20427;-71
2022/09/24 07:43:49;;;;;;;14.13;9.77;;;;;;;41.20;34.37;101244.81;6184403;23;20730;-69
2022/09/24 07:46:18;;;;;;;22.13;9.67;;;;;;;40.92;35.03;101248.94;6155423;23;20145;-69
2022/09/24 07:48:44;;;;;;;17.17;10.10;;;;;;;40.83;35.22;101248.13;6156810;23;20624;-69
2022/09/24 07:51:10;;;;;;;19.57;9.13;;;;;;;40.95;34.98;101242.88;6154400;23;20437;-70
2022/09/24 07:53:37;;;;;;;24.80;10.07;;;;;;;40.69;35.88;101248.22;6128800;23;20154;-69
2022/09/24 07:56:03;;;;;;;17.90;9.40;;;;;;;40.94;35.02;101246.69;6128348;23;20377;-70
2022/09/24 07:58:29;;;;;;;22.33;10.20;;;;;;;40.91;35.13;101250.88;6104539;23;20427;-69
2022/09/24 08:01:00;;;;;;;19.87;9.57;;;;;;;40.44;36.10;101255.97;6128654;23;20420;-69
2022/09/24 08:03:26;;;;;;;20.63;9.30;;;;;;;40.66;35.80;101246.16;6128823;23;20373;-73
2022/09/24 08:05:57;;;;;;;24.77;13.40;;;;;;;40.70;35.86;101257.97;6128586;23;20428;-69
2022/09/24 08:08:23;;;;;;;23.77;13.13;;;;;;;40.91;34.94;101255.50;6127791;23;20769;-69
2022/09/24 08:10:49;;;;;;;26.83;10.60;;;;;;;41.25;35.12;101252.00;6128541;23;20377;-70
2022/09/24 08:13:15;;;;;;;25.60;10.50;;;;;;;41.05;34.77;101254.25;6128424;23;20515;-69
2022/09/24 08:15:41;;;;;;;15.73;8.30;;;;;;;41.30;34.51;101249.94;6128448;23;20464;-70
2022/09/24 08:18:07;;;;;;;20.00;7.10;;;;;;;40.48;35.25;101256.16;6128699;23;20427;-69
2022/09/24 08:20:36;;;;;;;27.90;9.00;;;;;;;40.41;35.46;101253.88;6128564;23;20397;-69
2022/09/24 08:23:09;;;;;;;14.83;7.50;;;;;;;40.69;35.26;101253.66;6128784;23;20412;-69
2022/09/24 08:25:35;;;;;;;15.27;10.33;;;;;;;41.14;34.16;101250.75;6128342;23;20387;-69
2022/09/24 08:28:11;;;;;;;13.10;8.10;;;;;;;41.22;34.64;101247.22;6128386;23;20464;-70
2022/09/24 08:30:39;;;;;;;12.67;8.57;;;;;;;41.30;34.05;101247.19;6126086;23;20472;-71
2022/09/24 08:33:06;;;;;;;18.07;9.87;;;;;;;41.32;34.60;101253.19;6126505;23;21046;-70
2022/09/24 08:35:33;;;;;;;20.20;10.87;;;;;;;41.51;33.99;101247.41;6126321;23;20776;-71
2022/09/24 08:38:00;;;;;;;23.80;9.70;;;;;;;41.20;34.64;101252.19;6152907;23;20357;-71
2022/09/24 08:40:30;;;;;;;20.33;8.13;;;;;;;41.06;34.94;101260.47;6127290;23;20396;-70
2022/09/24 08:43:09;;;;;;;23.50;10.63;;;;;;;41.31;35.07;101261.59;6127327;23;20405;-69
2022/09/24 08:48:33;;;;;;;14.87;8.03;;;;;;;41.30;34.71;101268.19;6154317;23;20488;-72
2022/09/24 08:51:04;;;;;;;18.13;8.37;;;;;;;41.30;34.39;101271.69;6128109;23;20376;-69
2022/09/24 08:53:50;;;;;;;14.20;7.37;;;;;;;41.26;34.37;101265.31;6104001;23;20369;-70
2022/09/24 08:56:24;;;;;;;20.53;8.53;;;;;;;41.15;34.56;101268.66;6128145;23;20730;-69
2022/09/24 08:59:00;;;;;;;16.33;6.90;;;;;;;41.71;33.55;101275.88;6104530;23;20376;-69
2022/09/24 11:18:36;;;;;;;15.50;7.77;;;;;;;43.06;32.40;101209.72;5149648;27;20548;-68
2022/09/24 11:21:22;;;;;;;17.33;8.40;;;;;;;43.06;32.22;101201.53;5111315;27;20480;-69
2022/09/24 11:24:05;;;;;;;15.97;8.10;;;;;;;43.03;32.08;101194.03;5129381;27;20465;-68
2022/09/24 11:26:43;;;;;;;20.90;8.13;;;;;;;43.11;32.15;101186.91;5129077;27;20407;-70
2022/09/24 11:29:41;;;;;;;13.00;7.60;;;;;;;43.26;32.00;101188.19;5117422;27;20974;-69
2022/09/24 11:32:36;;;;;;;13.33;7.37;;;;;;;43.29;31.80;101193.00;5145034;27;20446;-68
2022/09/24 11:35:18;;;;;;;11.00;7.43;;;;;;;43.04;32.06;101183.91;5129215;27;20422;-68
2022/09/24 11:38:05;;;;;;;15.00;9.07;;;;;;;42.87;32.78;101176.63;5132239;27;20506;-68
2022/09/24 11:45:24;;;;;;;18.53;7.53;;;;;;;41.48;35.21;101162.81;5089484;27;20534;-70
2022/09/24 11:48:02;;;;;;;19.90;7.70;;;;;;;42.50;32.89;101159.22;5096250;28;20481;-71
2022/09/24 11:50:47;;;;;;;18.37;8.57;;;;;;;42.71;32.66;101148.34;5088597;28;20419;-73
2022/09/24 11:53:40;;;;;;;15.00;7.23;;;;;;;43.22;31.96;101146.31;5094039;28;20419;-71
2022/09/24 11:56:14;;;;;;;18.07;7.60;;;;;;;43.53;31.56;101151.31;5092070;28;20425;-68
2022/09/24 11:58:57;;;;;;;9.87;6.60;;;;;;;43.27;31.45;101146.88;5088807;28;20462;-68
2022/09/24 12:01:35;;;;;;;10.03;5.97;;;;;;;42.92;31.91;101140.97;5089855;28;20417;-68
2022/09/24 12:04:03;;;;;;;10.67;7.10;;;;;;;43.13;32.10;101139.00;5088606;28;20457;-74
2022/09/24 12:06:35;;;;;;;15.57;8.13;;;;;;;43.23;31.87;101137.00;5091998;28;20443;-67
2022/09/24 12:09:35;;;;;;;12.77;6.33;;;;;;;43.28;31.56;101132.13;5105151;28;20935;-71
2022/09/24 12:12:11;;;;;;;20.87;8.40;;;;;;;43.31;31.69;101136.91;5087114;28;20421;-68
2022/09/24 12:15:03;;;;;;;11.40;8.37;;;;;;;43.32;31.58;101137.69;5086915;28;20449;-67
2022/09/24 12:17:34;;;;;;;11.13;8.47;;;;;;;43.50;31.44;101132.88;5080894;28;20421;-69
2022/09/24 12:20:17;;;;;;;13.87;9.80;;;;;;;43.67;31.54;101122.53;5087101;28;20421;-68
2022/09/24 12:22:46;;;;;;;15.73;6.53;;;;;;;43.67;31.41;101119.00;5086787;28;21007;-69
2022/09/24 12:25:14;;;;;;;11.20;6.33;;;;;;;43.54;31.38;101120.94;5086769;28;20433;-69
2022/09/24 12:27:43;;;;;;;13.73;6.40;;;;;;;43.53;31.26;101113.88;5086864;28;20420;-70
2022/09/24 12:33:27;;;;;;;14.20;7.17;;;;;;;43.26;31.40;101096.16;5083997;28;20412;-72
2022/09/24 12:36:10;;;;;;;15.90;8.20;;;;;;;43.25;31.56;101101.97;5080910;28;20475;-73
2022/09/24 12:38:56;;;;;;;12.23;6.93;;;;;;;43.28;31.63;101091.16;5070045;28;20432;-72
2022/09/24 12:41:33;;;;;;;17.77;7.40;;;;;;;43.42;31.43;101097.13;5067386;28;20935;-74
2022/09/24 12:44:11;;;;;;;15.47;8.10;;;;;;;43.31;31.47;101087.75;5084509;28;20468;-73
2022/09/24 12:46:53;;;;;;;13.47;6.77;;;;;;;43.13;31.55;101086.34;5082589;28;20431;-73
2022/09/24 12:49:25;;;;;;;24.57;8.17;;;;;;;43.13;31.77;101083.63;5070663;28;20420;-72
2022/09/24 12:51:57;;;;;;;10.00;5.73;;;;;;;43.30;31.44;101080.69;5079250;28;20409;-72
2022/09/24 12:54:33;;;;;;;11.00;8.87;;;;;;;43.04;31.45;101080.97;5076596;28;20424;-74
2022/09/24 12:57:05;;;;;;;14.80;7.60;;;;;;;42.71;32.43;101067.28;5079457;28;20412;-73
2022/09/24 12:59:31;;;;;;;15.03;6.37;;;;;;;42.62;32.52;101058.41;5068501;28;20447;-74
2022/09/24 13:02:15;;;;;;;12.73;7.90;;;;;;;43.06;32.14;101065.06;5065669;28;20433;-74
2022/09/24 13:05:00;;;;;;;14.73;8.50;;;;;;;43.01;32.00;101065.25;5063007;28;20456;-77
2022/09/24 13:07:35;;;;;;;11.73;7.03;;;;;;;43.33;31.30;101049.16;5065296;28;20450;-77
2022/09/24 13:10:23;;;;;;;10.90;7.90;;;;;;;43.53;31.32;101048.31;5061651;28;21050;-74
2022/09/24 13:12:49;;;;;;;22.63;9.17;;;;;;;43.14;31.97;101036.06;5067514;28;20502;-73
2022/09/24 13:15:37;;;;;;;13.57;6.00;;;;;;;42.84;32.17;101028.00;5065422;28;20933;-79
2022/09/24 13:18:05;;;;;;;20.43;7.80;;;;;;;43.07;31.81;101033.09;5075611;28;20571;-73
2022/09/24 13:20:33;;;;;;;14.70;7.30;;;;;;;43.25;31.71;101022.78;5077152;28;20505;-73
2022/09/24 13:23:15;;;;;;;14.10;7.27;;;;;;;43.06;31.94;101021.38;5076785;28;20424;-73
2022/09/24 13:25:53;;;;;;;18.33;7.03;;;;;;;43.22;31.67;101005.16;5076955;28;20449;-74
2022/09/24 13:28:20;;;;;;;14.77;6.73;;;;;;;43.29;31.34;101002.66;5076713;28;20413;-73
2022/09/24 13:30:54;;;;;;;15.40;7.00;;;;;;;42.97;31.88;100998.00;5076759;28;20858;-73
2022/09/24 13:33:41;;;;;;;13.93;7.77;;;;;;;43.08;32.31;100993.75;5076457;28;20421;-73
2022/09/24 13:36:34;;;;;;;13.60;7.10;;;;;;;43.14;31.65;100995.91;5076766;28;20409;-74
2022/09/24 13:39:13;;;;;;;13.73;6.83;;;;;;;42.63;32.53;100987.13;5076699;28;20907;-73
2022/09/24 13:41:52;;;;;;;12.93;6.13;;;;;;;42.14;33.26;100978.69;5094792;28;20550;-73
2022/09/24 13:44:40;;;;;;;13.40;6.63;;;;;;;42.40;32.88;100978.50;5065123;28;20470;-74
2022/09/24 13:47:22;;;;;;;14.53;7.50;;;;;;;42.48;32.93;100976.00;5060831;28;20419;-74
2022/09/24 13:49:51;;;;;;;14.60;6.17;;;;;;;42.96;32.28;100975.38;5060480;28;20556;-74
2022/09/24 13:52:35;;;;;;;13.43;5.80;;;;;;;42.65;32.88;100967.69;5061028;28;20637;-73
2022/09/24 13:55:24;;;;;;;16.43;7.00;;;;;;;42.77;32.14;100967.72;5070303;28;20433;-74
2022/09/24 13:57:50;;;;;;;19.80;9.33;;;;;;;42.90;32.10;100968.53;5068673;28;20422;-74
2022/09/24 14:00:20;;;;;;;26.83;8.70;;;;;;;42.70;32.32;100966.69;5059621;28;20414;-75
2022/09/24 14:03:21;;;;;;;15.17;6.97;;;;;;;42.43;32.48;100959.88;5067527;28;20442;-74
2022/09/24 14:05:50;;;;;;;16.77;6.90;;;;;;;42.51;32.61;100948.09;5071145;28;20429;-75
2022/09/24 14:08:20;;;;;;;16.43;7.60;;;;;;;42.75;32.21;100941.94;5070165;28;20426;-74
2022/09/24 14:10:49;;;;;;;17.60;9.23;;;;;;;42.73;32.01;100936.03;5071628;28;20445;-74
2022/09/24 14:13:20;;;;;;;10.83;7.03;;;;;;;42.62;32.31;100938.38;5072592;28;20414;-74
2022/09/24 14:15:52;;;;;;;16.83;6.93;;;;;;;42.24;32.82;100933.91;5071145;28;20773;-74
2022/09/24 14:18:18;;;;;;;11.20;7.50;;;;;;;42.56;32.43;100917.88;5071745;28;20425;-75
2022/09/24 14:20:48;;;;;;;17.87;7.93;;;;;;;42.31;32.56;100917.00;5060804;28;20448;-78
2022/09/24 14:23:23;;;;;;;24.33;10.03;;;;;;;42.03;33.35;100912.09;5060968;28;20481;-79
2022/09/24 14:25:51;;;;;;;13.90;8.90;;;;;;;42.39;32.97;100902.50;5060835;28;20935;-74
2022/09/24 14:28:18;;;;;;;16.73;7.70;;;;;;;42.51;32.51;100904.44;5059946;28;20430;-73
2022/09/24 14:30:52;;;;;;;11.07;6.00;;;;;;;42.31;32.95;100906.91;5060460;28;20460;-73
2022/09/24 14:33:24;;;;;;;12.90;6.47;;;;;;;42.98;31.96;100907.66;5068725;28;20410;-74
2022/09/24 14:35:53;;;;;;;17.23;8.70;;;;;;;43.01;32.19;100908.91;5060444;28;20414;-73
2022/09/24 14:38:24;;;;;;;14.43;7.90;;;;;;;42.85;32.38;100895.13;5054595;28;20422;-71
2022/09/24 14:41:16;;;;;;;14.20;7.50;;;;;;;43.19;31.51;100897.41;5066133;28;20414;-73
2022/09/24 14:44:07;;;;;;;11.40;7.00;;;;;;;43.57;30.77;100896.25;5056585;28;20478;-75
2022/09/24 14:46:47;;;;;;;16.77;7.63;;;;;;;43.30;31.21;100875.91;5061254;28;20833;-72
2022/09/24 14:49:16;;;;;;;11.83;5.47;;;;;;;43.31;31.04;100873.97;5061721;28;20406;-72
2022/09/24 14:51:50;;;;;;;13.73;7.30;;;;;;;43.04;32.02;100867.28;5060178;28;20438;-72
2022/09/24 14:54:22;;;;;;;17.73;8.57;;;;;;;43.71;30.96;100868.56;5062687;28;20413;-74
2022/09/24 14:56:48;;;;;;;11.20;7.27;;;;;;;43.55;30.90;100867.69;5062115;28;20979;-71
2022/09/24 14:59:25;;;;;;;13.57;8.47;;;;;;;43.30;30.87;100864.19;5060665;28;20433;-73
2022/09/24 15:02:14;;;;;;;15.17;8.27;;;;;;;43.20;31.08;100865.44;5059184;28;20410;-71
2022/09/24 15:04:45;;;;;;;10.83;6.67;;;;;;;42.75;31.70;100860.09;5060500;28;20445;-72
2022/09/24 15:07:16;;;;;;;11.37;7.37;;;;;;;42.99;31.71;100860.13;5068646;28;20441;-73
2022/09/24 15:09:44;;;;;;;14.03;7.10;;;;;;;43.57;30.58;100868.94;5067925;28;20484;-71
2022/09/24 15:12:37;;;;;;;10.27;5.90;;;;;;;44.03;30.61;100860.50;5058778;28;20959;-71
2022/09/24 15:15:25;;;;;;;11.40;6.60;;;;;;;43.72;30.61;100857.28;5049147;28;20414;-73
2022/09/24 15:17:51;;;;;;;10.87;5.53;;;;;;;43.27;31.17;100852.00;5061815;28;20421;-73
2022/09/24 15:20:17;;;;;;;18.73;9.47;;;;;;;43.61;30.37;100850.72;5062582;28;20405;-71
2022/09/24 15:22:46;;;;;;;19.03;7.97;;;;;;;43.33;30.92;100838.91;5070008;28;20422;-71
2022/09/24 15:25:14;;;;;;;9.10;6.40;;;;;;;43.40;31.09;100844.59;5061924;28;20450;-71
2022/09/24 15:27:43;;;;;;;12.37;6.40;;;;;;;43.89;30.34;100842.56;5066840;28;20564;-71
2022/09/24 15:30:17;;;;;;;14.33;7.53;;;;;;;43.99;30.02;100849.44;5052965;28;20402;-73
2022/09/24 15:32:44;;;;;;;15.97;7.50;;;;;;;43.96;30.21;100841.97;5067971;28;20422;-73
2022/09/24 15:35:13;;;;;;;9.73;6.00;;;;;;;43.79;29.92;100837.59;5055777;28;20422;-75
2022/09/24 15:37:40;;;;;;;11.63;5.77;;;;;;;43.15;31.15;100838.38;5061370;28;20426;-73
2022/09/24 15:40:21;;;;;;;15.83;7.23;;;;;;;43.03;30.90;100822.00;5066644;28;20430;-73
2022/09/24 15:42:49;;;;;;;19.77;9.10;;;;;;;42.76;31.67;100827.00;5068668;28;20414;-80
2022/09/24 15:45:21;;;;;;;17.43;7.50;;;;;;;42.91;31.34;100826.34;5053343;28;20471;-77
2022/09/24 15:47:48;;;;;;;9.20;6.03;;;;;;;42.96;32.07;100822.56;5050777;28;20415;-73
2022/09/24 15:50:14;;;;;;;21.83;7.53;;;;;;;43.18;31.61;100824.03;5067925;28;20967;-74
2022/09/24 15:52:51;;;;;;;11.70;7.80;;;;;;;42.87;31.65;100819.97;5070192;28;20513;-73
2022/09/24 15:55:19;;;;;;;15.93;8.23;;;;;;;42.83;32.02;100816.31;5052536;28;20436;-75
2022/09/24 15:57:46;;;;;;;13.10;8.63;;;;;;;43.12;31.64;100809.84;5054615;28;20932;-74
2022/09/24 16:00:23;;;;;;;17.10;8.17;;;;;;;43.34;31.19;100813.19;5051214;28;20410;-73
2022/09/24 16:02:54;;;;;;;15.70;9.43;;;;;;;43.67;31.03;100800.16;5065044;28;20939;-71
2022/09/24 16:05:21;;;;;;;14.47;8.47;;;;;;;43.53;30.85;100805.22;5062328;28;20488;-72
2022/09/24 16:07:48;;;;;;;12.17;7.20;;;;;;;43.30;31.60;100799.44;5052336;28;20404;-75
2022/09/24 16:10:15;;;;;;;24.37;8.10;;;;;;;44.51;30.05;100796.53;5070709;28;20453;-73
2022/09/24 16:12:42;;;;;;;15.53;8.70;;;;;;;44.71;29.35;100802.88;5064864;28;20452;-73
2022/09/24 16:15:12;;;;;;;16.93;8.57;;;;;;;45.58;28.58;100804.41;5059355;28;20426;-73
2022/09/24 16:17:38;;;;;;;23.80;9.97;;;;;;;45.78;28.10;100808.75;5058425;28;21019;-73
2022/09/24 16:20:06;;;;;;;17.17;6.30;;;;;;;45.35;28.37;100812.56;5072230;28;20469;-69
2022/09/24 16:22:32;;;;;;;13.83;7.00;;;;;;;46.40;27.31;100805.94;5058758;28;20511;-77
2022/09/24 16:24:58;;;;;;;14.43;8.00;;;;;;;47.19;26.44;100804.38;5066955;28;20556;-72
2022/09/24 16:27:24;;;;;;;11.23;6.37;;;;;;;48.09;24.92;100802.31;5066981;28;20944;-72
2022/09/24 16:29:50;;;;;;;11.93;7.00;;;;;;;48.74;23.82;100813.84;5060156;28;20421;-72
2022/09/24 16:32:16;;;;;;;20.83;8.87;;;;;;;48.31;24.24;100817.03;5075044;28;20447;-73
2022/09/24 16:34:42;;;;;;;16.03;7.80;;;;;;;48.64;23.34;100821.66;5068133;28;20398;-73
2022/09/24 16:37:08;;;;;;;10.67;8.10;;;;;;;47.69;24.57;100822.31;5061945;28;20498;-73
2022/09/24 16:39:35;;;;;;;9.27;5.87;;;;;;;47.76;24.53;100827.91;5062463;28;20398;-72
2022/09/24 16:42:01;;;;;;;12.53;8.10;;;;;;;47.50;25.26;100828.75;5061170;28;20460;-72
2022/09/24 16:44:27;;;;;;;10.13;6.03;;;;;;;47.50;25.17;100833.44;5056468;28;20538;-72
2022/09/24 16:46:53;;;;;;;13.83;6.60;;;;;;;46.78;25.82;100834.41;5063464;28;20773;-73
2022/09/24 16:49:22;;;;;;;14.80;8.43;;;;;;;46.08;27.06;100824.56;5061741;28;20425;-73
2022/09/24 16:51:48;;;;;;;14.20;7.50;;;;;;;45.80;27.43;100828.38;5062243;28;20443;-72
2022/09/24 16:54:14;;;;;;;21.20;7.93;;;;;;;45.57;27.77;100829.44;5063374;28;20448;-73
2022/09/24 16:56:40;;;;;;;20.50;8.00;;;;;;;44.65;29.13;100831.66;5058214;28;20990;-74
2022/09/24 16:59:06;;;;;;;16.03;8.50;;;;;;;44.21;29.68;100831.72;5062721;28;20955;-73
2022/09/24 17:01:32;;;;;;;22.07;9.20;;;;;;;44.22;29.43;100828.63;5067845;28;20567;-76
2022/09/24 17:03:58;;;;;;;17.10;6.70;;;;;;;43.88;29.79;100826.50;5064645;28;20486;-75
2022/09/24 17:06:29;;;;;;;14.27;7.97;;;;;;;43.93;29.99;100832.50;5063435;28;20900;-73
2022/09/24 17:11:41;;;;;;;23.13;9.10;;;;;;;43.51;30.83;100842.19;5061676;28;20436;-81
2022/09/24 17:14:27;;;;;;;22.77;8.37;;;;;;;43.66;30.34;100846.94;5065586;28;20517;-70
2022/09/24 17:16:53;;;;;;;15.30;8.67;;;;;;;44.17;29.43;100844.47;5073801;28;20425;-71
2022/09/24 17:19:19;;;;;;;18.90;6.70;;;;;;;43.84;29.67;100855.69;5073514;28;20829;-72
2022/09/24 17:21:48;;;;;;;12.60;7.37;;;;;;;43.82;30.18;100852.47;5073740;28;20417;-74
2022/09/24 17:24:15;;;;;;;12.57;6.40;;;;;;;43.55;30.75;100846.63;5073585;28;20413;-76
2022/09/24 17:26:42;;;;;;;16.67;9.07;;;;;;;42.75;31.75;100849.97;5070276;28;20445;-72
2022/09/24 17:29:08;;;;;;;13.70;6.13;;;;;;;42.75;31.94;100838.25;5069455;28;20438;-75
2022/09/24 17:31:34;;;;;;;16.60;9.23;;;;;;;42.16;32.03;100850.28;5062709;28;20416;-73
2022/09/24 17:34:06;;;;;;;11.60;7.20;;;;;;;41.68;32.44;100856.25;5065172;28;20452;-72
2022/09/24 17:36:33;;;;;;;19.07;9.53;;;;;;;42.17;32.27;100857.31;5063647;28;20395;-73
2022/09/24 17:38:59;;;;;;;16.30;8.20;;;;;;;42.16;32.31;100860.34;5067381;28;20507;-73
2022/09/24 17:41:27;;;;;;;23.40;12.67;;;;;;;42.44;32.07;100861.38;5069913;28;20441;-73
2022/09/24 17:43:57;;;;;;;23.23;10.10;;;;;;;42.44;32.57;100866.84;5062143;28;20458;-76
2022/09/24 17:46:25;;;;;;;36.93;12.33;;;;;;;42.26;32.85;100859.97;5058514;28;20457;-73
2022/09/24 17:48:54;;;;;;;19.77;9.77;;;;;;;42.07;33.03;100874.88;5063052;28;20419;-74
2022/09/24 17:51:26;;;;;;;25.47;11.03;;;;;;;42.19;32.60;100882.31;5062257;28;20463;-74
2022/09/24 17:53:54;;;;;;;14.30;7.30;;;;;;;42.11;33.18;100886.69;5066147;28;20469;-78
2022/09/24 17:56:27;;;;;;;20.10;9.30;;;;;;;42.11;32.72;100891.34;5063509;28;20467;-74
2022/09/24 17:58:54;;;;;;;35.07;10.00;;;;;;;42.05;32.77;100900.84;5052214;28;20438;-73
2022/09/24 18:01:24;;;;;;;12.77;7.40;;;;;;;41.92;33.33;100900.00;5054045;28;20912;-74
2022/09/24 18:03:57;;;;;;;18.67;8.77;;;;;;;42.25;32.63;100899.28;5052680;28;20410;-74
2022/09/24 18:06:25;;;;;;;21.10;8.73;;;;;;;41.92;32.95;100910.09;5055160;28;20413;-73
2022/09/24 18:08:52;;;;;;;19.90;10.10;;;;;;;41.91;32.95;100903.84;5085071;28;21022;-73
2022/09/24 18:11:21;;;;;;;19.50;9.17;;;;;;;42.27;32.29;100905.19;5061597;28;20420;-73
2022/09/24 18:13:53;;;;;;;28.37;8.97;;;;;;;42.37;32.38;100910.22;5071776;28;20473;-73
2022/09/24 18:16:21;;;;;;;19.37;8.67;;;;;;;42.30;32.36;100905.31;5055964;28;20438;-73
2022/09/24 18:18:51;;;;;;;17.60;8.80;;;;;;;42.08;32.84;100908.38;5055307;28;20456;-73
2022/09/24 18:21:29;;;;;;;15.63;8.60;;;;;;;41.44;34.01;100905.94;5063282;28;20418;-82
2022/09/24 18:24:16;;;;;;;18.00;9.30;;;;;;;41.41;33.91;100907.38;5053472;28;20957;-72
2022/09/24 18:26:42;;;;;;;18.73;9.23;;;;;;;41.29;33.94;100907.25;5065525;28;20478;-75
2022/09/24 18:29:14;;;;;;;14.60;7.30;;;;;;;41.25;33.92;100923.47;5073063;28;20394;-73
2022/09/24 18:31:41;;;;;;;15.57;8.13;;;;;;;41.63;34.00;100930.00;5072120;28;20417;-73
2022/09/24 18:34:11;;;;;;;27.77;9.47;;;;;;;41.69;33.27;100932.22;5071969;28;20547;-75
2022/09/24 18:36:38;;;;;;;17.37;8.90;;;;;;;41.32;34.05;100942.00;5072187;28;20416;-73
2022/09/24 18:39:07;;;;;;;20.57;12.17;;;;;;;41.91;33.36;100950.16;5071900;28;20504;-74
2022/09/24 18:41:33;;;;;;;14.50;7.80;;;;;;;42.09;32.64;100959.81;5066387;28;20421;-75
2022/09/24 18:44:00;;;;;;;20.03;8.40;;;;;;;41.60;33.95;100969.56;5065337;28;20523;-73
2022/09/24 18:46:29;;;;;;;28.30;7.97;;;;;;;41.84;33.51;100960.81;5062340;28;20437;-73
2022/09/24 18:48:56;;;;;;;15.10;8.67;;;;;;;41.71;33.44;100970.00;5067930;28;21010;-73
2022/09/24 18:51:26;;;;;;;21.40;7.73;;;;;;;41.49;34.23;100968.34;5071518;28;20409;-74
2022/09/24 18:54:01;;;;;;;19.70;9.07;;;;;;;41.34;34.25;100970.50;5068487;28;20534;-74
2022/09/24 18:56:28;;;;;;;22.80;8.43;;;;;;;41.62;33.45;100972.78;5060928;28;20405;-73
2022/09/24 18:58:56;;;;;;;20.00;9.60;;;;;;;41.35;34.22;100979.47;5056923;28;20493;-73
2022/09/24 19:01:23;;;;;;;22.67;8.70;;;;;;;41.52;34.06;100981.31;5069192;28;20938;-73
2022/09/24 19:03:50;;;;;;;24.13;8.77;;;;;;;41.57;34.12;100987.38;5059475;28;20469;-74
2022/09/24 19:06:16;;;;;;;19.17;9.70;;;;;;;41.77;34.03;100988.56;5067616;28;20855;-73
2022/09/24 19:08:42;;;;;;;26.67;9.23;;;;;;;41.68;33.70;100982.38;5057732;28;20422;-81
2022/09/24 19:11:11;;;;;;;25.57;10.03;;;;;;;41.08;34.25;100984.22;5058308;28;20447;-73
2022/09/24 19:13:39;;;;;;;16.80;6.97;;;;;;;40.78;35.03;100985.22;5059706;28;20450;-77
2022/09/24 19:16:12;;;;;;;20.50;8.40;;;;;;;41.30;34.24;100987.78;5051326;28;20434;-73
2022/09/24 19:18:58;;;;;;;14.97;10.23;;;;;;;40.87;35.16;100991.41;5056508;28;20413;-80
2022/09/24 19:21:25;;;;;;;17.03;7.30;;;;;;;41.26;34.35;100975.97;5066250;28;20445;-80
2022/09/24 19:23:53;;;;;;;19.53;9.50;;;;;;;40.80;35.36;100991.13;5068673;28;20465;-80
2022/09/24 19:26:22;;;;;;;20.90;8.60;;;;;;;40.71;35.78;100995.78;5071258;28;20441;-78
2022/09/24 19:28:49;;;;;;;14.00;8.10;;;;;;;40.66;35.73;100999.47;5071351;28;20517;-79
2022/09/24 19:31:21;;;;;;;21.23;7.60;;;;;;;40.90;35.33;101000.88;5065542;28;20442;-73
2022/09/24 19:33:49;;;;;;;16.80;8.63;;;;;;;40.89;35.54;101010.97;5060604;28;20500;-73
2022/09/24 19:36:16;;;;;;;19.20;7.73;;;;;;;41.08;35.13;101005.97;5046691;28;20556;-72
2022/09/24 19:38:42;;;;;;;34.47;8.07;;;;;;;40.99;35.06;101012.56;5068289;28;20406;-73
2022/09/24 19:41:14;;;;;;;18.10;9.37;;;;;;;41.02;35.06;101023.59;5052095;28;20450;-73
2022/09/24 19:43:44;;;;;;;18.67;8.77;;;;;;;40.93;35.03;101028.25;5067825;28;20486;-73
2022/09/24 19:46:15;;;;;;;19.93;7.80;;;;;;;41.00;35.01;101027.75;5071252;28;20441;-74
2022/09/24 19:48:46;;;;;;;16.23;9.03;;;;;;;41.24;35.24;101029.94;5071046;28;20445;-75
2022/09/24 19:51:15;;;;;;;15.63;8.27;;;;;;;41.42;34.74;101028.78;5063721;28;20477;-75
2022/09/24 19:53:42;;;;;;;19.20;9.37;;;;;;;41.45;34.61;101041.75;5060068;28;20548;-75
2022/09/24 19:56:15;;;;;;;19.23;7.07;;;;;;;41.37;34.84;101048.00;5057814;28;20435;-74
2022/09/24 19:58:47;;;;;;;19.33;7.57;;;;;;;41.54;34.64;101047.16;5051870;28;20426;-84
2022/09/24 20:01:13;;;;;;;16.20;8.57;;;;;;;41.50;33.97;101055.19;5056677;28;20452;-79
2022/09/24 20:03:39;;;;;;;26.40;10.20;;;;;;;41.34;34.16;101052.19;5057673;28;20457;-74
2022/09/24 20:06:07;;;;;;;15.70;7.60;;;;;;;41.37;34.22;101049.94;5085437;28;20947;-74
2022/09/24 20:08:34;;;;;;;16.53;9.07;;;;;;;41.57;33.68;101063.63;5069034;28;20516;-76
2022/09/24 20:11:05;;;;;;;14.57;8.33;;;;;;;41.78;33.84;101065.66;5063950;28;20441;-76
2022/09/24 20:13:31;;;;;;;15.57;8.50;;;;;;;41.78;33.83;101066.44;5057913;28;20519;-74
2022/09/24 20:16:02;;;;;;;25.50;9.67;;;;;;;41.67;34.07;101069.84;5052486;28;20429;-74
2022/09/24 20:18:29;;;;;;;16.50;7.03;;;;;;;41.74;33.69;101070.13;5036494;28;20418;-74
2022/09/24 20:21:01;;;;;;;14.03;9.00;;;;;;;41.77;33.44;101072.22;5052461;28;20789;-75
2022/09/24 20:23:27;;;;;;;19.10;7.60;;;;;;;41.76;33.48;101073.34;5067347;28;20420;-75
2022/09/24 20:28:39;;;;;;;17.90;8.20;;;;;;;41.65;33.49;101069.38;5070677;28;20424;-75
2022/09/24 20:31:10;;;;;;;23.43;9.73;;;;;;;41.57;33.85;101077.25;5062345;28;20521;-74
2022/09/24 20:33:39;;;;;;;19.63;9.70;;;;;;;41.85;33.56;101074.09;5054088;28;20461;-75
2022/09/24 20:36:05;;;;;;;27.53;10.10;;;;;;;41.86;33.24;101070.25;5054023;28;20529;-74
2022/09/24 20:38:32;;;;;;;23.53;10.10;;;;;;;41.67;33.58;101067.09;5067534;28;20799;-74
2022/09/24 20:40:59;;;;;;;19.73;9.23;;;;;;;41.55;33.82;101073.25;5056098;28;20418;-75